createdAt,value
2018-08-09T00:00:40.272Z,1016.38
2018-08-09T00:01:50.390Z,1016.36
2018-08-09T00:03:00.234Z,1016.33
2018-08-09T00:04:09.810Z,1016.3
2018-08-09T00:05:19.656Z,1016.28
2018-08-09T00:06:29.238Z,1016.27
2018-08-09T00:07:39.088Z,1016.24
2018-08-09T00:08:48.671Z,1016.27
2018-08-09T00:09:58.247Z,1016.29
2018-08-09T00:11:08.092Z,1016.28
2018-08-09T00:12:18.201Z,1016.26
2018-08-09T00:13:28.316Z,1016.25
2018-08-09T00:14:38.168Z,1016.22
2018-08-09T00:15:47.747Z,1016.23
2018-08-09T00:16:57.609Z,1016.23
2018-08-09T00:18:07.188Z,1016.25
2018-08-09T00:19:16.492Z,1016.22
2018-08-09T00:20:26.068Z,1016.21
2018-08-09T00:21:35.375Z,1016.24
2018-08-09T00:22:44.957Z,1016.19
2018-08-09T00:23:54.375Z,1016.29
2018-08-09T00:25:04.024Z,1016.28
2018-08-09T00:26:13.871Z,1016.29
2018-08-09T00:27:23.181Z,1016.25
2018-08-09T00:28:32.486Z,1016.27
2018-08-09T00:29:41.794Z,1016.27
2018-08-09T00:30:51.368Z,1016.34
2018-08-09T00:32:01.499Z,1016.36
2018-08-09T00:33:11.616Z,1016.33
2018-08-09T00:34:21.193Z,1016.38
2018-08-09T00:35:30.496Z,1016.4
2018-08-09T00:36:40.340Z,1016.4
2018-08-09T00:37:49.913Z,1016.43
2018-08-09T00:38:59.758Z,1016.4
2018-08-09T00:40:09.062Z,1016.43
2018-08-09T00:41:19.183Z,1016.47
2018-08-09T00:42:29.032Z,1016.43
2018-08-09T00:43:38.872Z,1016.42
2018-08-09T00:44:48.455Z,1016.36
2018-08-09T00:45:58.300Z,1016.35
2018-08-09T00:47:07.872Z,1016.36
2018-08-09T00:48:17.716Z,1016.38
2018-08-09T00:49:27.293Z,1016.33
2018-08-09T00:50:37.140Z,1016.34
2018-08-09T00:51:46.453Z,1016.35
2018-08-09T00:52:56.294Z,1016.37
2018-08-09T00:54:05.597Z,1016.33
2018-08-09T00:55:14.903Z,1016.28
2018-08-09T00:56:24.207Z,1016.31
2018-08-09T00:57:33.786Z,1016.26
2018-08-09T00:58:43.636Z,1016.32
2018-08-09T00:59:53.214Z,1016.3
2018-08-09T01:01:01.985Z,1016.31
2018-08-09T01:02:11.024Z,1016.32
2018-08-09T01:03:20.328Z,1016.32
2018-08-09T01:04:29.900Z,1016.32
2018-08-09T01:05:39.745Z,1016.3
2018-08-09T01:06:49.639Z,1016.35
2018-08-09T01:07:58.951Z,1016.31
2018-08-09T01:09:08.264Z,1016.29
2018-08-09T01:10:17.559Z,1016.32
2018-08-09T01:11:26.595Z,1016.3
2018-08-09T01:12:35.625Z,1016.25
2018-08-09T01:13:45.212Z,1016.26
2018-08-09T01:14:55.324Z,1016.23
2018-08-09T01:16:04.902Z,1016.24
2018-08-09T01:17:14.745Z,1016.21
2018-08-09T01:18:24.591Z,1016.22
2018-08-09T01:19:34.167Z,1016.2
2018-08-09T01:20:44.017Z,1016.22
2018-08-09T01:21:53.321Z,1016.18
2018-08-09T01:23:03.437Z,1016.18
2018-08-09T01:24:12.740Z,1016.2
2018-08-09T01:25:22.587Z,1016.22
2018-08-09T01:26:32.160Z,1016.25
2018-08-09T01:27:42.007Z,1016.23
2018-08-09T01:28:51.581Z,1016.28
2018-08-09T01:30:01.158Z,1016.29
2018-08-09T01:31:10.730Z,1016.29
2018-08-09T01:32:20.300Z,1016.3
2018-08-09T01:33:29.882Z,1016.31
2018-08-09T01:34:39.184Z,1016.26
2018-08-09T01:35:48.489Z,1016.24
2018-08-09T01:36:58.607Z,1016.2
2018-08-09T01:38:08.189Z,1016.26
2018-08-09T01:39:17.761Z,1016.28
2018-08-09T01:40:27.060Z,1016.27
2018-08-09T01:41:36.638Z,1016.3
2018-08-09T01:42:46.751Z,1016.31
2018-08-09T01:43:56.594Z,1016.34
2018-08-09T01:45:06.187Z,1016.34
2018-08-09T01:46:15.492Z,1016.31
2018-08-09T01:47:25.343Z,1016.31
2018-08-09T01:48:35.193Z,1016.36
2018-08-09T01:49:44.769Z,1016.35
2018-08-09T01:50:54.614Z,1016.37
2018-08-09T01:52:03.653Z,1016.38
2018-08-09T01:53:13.767Z,1016.36
2018-08-09T01:54:23.888Z,1016.38
2018-08-09T01:55:33.738Z,1016.4
2018-08-09T01:56:43.040Z,1016.37
2018-08-09T01:57:53.154Z,1016.34
2018-08-09T01:59:02.740Z,1016.31
2018-08-09T02:00:12.592Z,1016.32
2018-08-09T02:01:21.630Z,1016.32
2018-08-09T02:02:31.208Z,1016.34
2018-08-09T02:03:41.318Z,1016.41
2018-08-09T02:04:51.552Z,1016.41
2018-08-09T02:06:01.310Z,1016.39
2018-08-09T02:07:11.195Z,1016.4
2018-08-09T02:08:21.407Z,1016.44
2018-08-09T02:09:30.986Z,1016.44
2018-08-09T02:10:40.567Z,1016.43
2018-08-09T02:11:50.139Z,1016.41
2018-08-09T02:12:59.453Z,1016.38
2018-08-09T02:14:09.028Z,1016.44
2018-08-09T02:15:18.607Z,1016.47
2018-08-09T02:16:27.908Z,1016.45
2018-08-09T02:17:37.753Z,1016.4
2018-08-09T02:18:47.327Z,1016.39
2018-08-09T02:19:57.447Z,1016.38
2018-08-09T02:21:07.286Z,1016.35
2018-08-09T02:22:17.169Z,1016.33
2018-08-09T02:23:27.303Z,1016.32
2018-08-09T02:24:36.611Z,1016.29
2018-08-09T02:25:46.726Z,1016.29
2018-08-09T02:26:56.569Z,1016.29
2018-08-09T02:28:06.154Z,1016.35
2018-08-09T02:29:15.726Z,1016.35
2018-08-09T02:30:25.306Z,1016.38
2018-08-09T02:31:35.160Z,1016.33
2018-08-09T02:32:45.283Z,1016.31
2018-08-09T02:33:55.426Z,1016.32
2018-08-09T02:35:04.738Z,1016.39
2018-08-09T02:36:14.592Z,1016.37
2018-08-09T02:37:24.440Z,1016.4
2018-08-09T02:38:34.023Z,1016.41
2018-08-09T02:39:43.873Z,1016.37
2018-08-09T02:40:53.999Z,1016.33
2018-08-09T02:42:03.861Z,1016.33
2018-08-09T02:43:13.443Z,1016.26
2018-08-09T02:44:23.303Z,1016.29
2018-08-09T02:45:32.880Z,1016.27
2018-08-09T02:46:42.792Z,1016.27
2018-08-09T02:47:53.462Z,1016.27
2018-08-09T02:49:03.318Z,1016.26
2018-08-09T02:50:13.171Z,1016.26
2018-08-09T02:51:23.040Z,1016.28
2018-08-09T02:52:33.165Z,1016.2
2018-08-09T02:53:43.029Z,1016.25
2018-08-09T02:54:52.878Z,1016.24
2018-08-09T02:56:02.993Z,1016.23
2018-08-09T02:57:13.105Z,1016.24
2018-08-09T02:58:22.992Z,1016.18
2018-08-09T02:59:32.574Z,1016.24
2018-08-09T03:00:42.163Z,1016.21
2018-08-09T03:01:52.014Z,1016.18
2018-08-09T03:03:01.604Z,1016.21
2018-08-09T03:04:11.459Z,1016.23
2018-08-09T03:05:21.037Z,1016.2
2018-08-09T03:06:30.069Z,1016.21
2018-08-09T03:07:39.935Z,1016.17
2018-08-09T03:08:50.053Z,1016.19
2018-08-09T03:09:59.920Z,1016.23
2018-08-09T03:11:10.048Z,1016.27
2018-08-09T03:12:19.357Z,1016.29
2018-08-09T03:13:28.937Z,1016.28
2018-08-09T03:14:38.790Z,1016.29
2018-08-09T03:15:48.363Z,1016.23
2018-08-09T03:16:57.945Z,1016.24
2018-08-09T03:18:07.260Z,1016.14
2018-08-09T03:19:17.105Z,1016.15
2018-08-09T03:20:26.966Z,1016.15
2018-08-09T03:21:36.544Z,1016.14
2018-08-09T03:22:46.660Z,1016.15
2018-08-09T03:23:56.510Z,1016.17
2018-08-09T03:25:06.636Z,1016.18
2018-08-09T03:26:15.942Z,1016.19
2018-08-09T03:27:26.055Z,1016.23
2018-08-09T03:28:35.910Z,1016.25
2018-08-09T03:29:45.209Z,1016.27
2018-08-09T03:30:54.774Z,1016.26
2018-08-09T03:32:04.091Z,1016.25
2018-08-09T03:33:13.940Z,1016.27
2018-08-09T03:34:22.979Z,1016.29
2018-08-09T03:35:32.819Z,1016.3
2018-08-09T03:36:42.662Z,1016.3
2018-08-09T03:37:52.234Z,1016.29
2018-08-09T03:39:01.819Z,1016.27
2018-08-09T03:40:11.394Z,1016.23
2018-08-09T03:41:21.235Z,1016.27
2018-08-09T03:42:30.540Z,1016.22
2018-08-09T03:43:40.114Z,1016.23
2018-08-09T03:44:50.284Z,1016.23
2018-08-09T03:45:59.868Z,1016.23
2018-08-09T03:47:09.446Z,1016.21
2018-08-09T03:48:19.292Z,1016.21
2018-08-09T03:49:28.867Z,1016.17
2018-08-09T03:50:38.712Z,1016.16
2018-08-09T03:51:48.573Z,1016.17
2018-08-09T03:52:58.145Z,1016.12
2018-08-09T03:54:07.995Z,1016.11
2018-08-09T03:55:17.581Z,1016.14
2018-08-09T03:56:27.161Z,1016.17
2018-08-09T03:57:37.020Z,1016.12
2018-08-09T03:58:46.602Z,1016.15
2018-08-09T03:59:56.180Z,1016.17
2018-08-09T04:01:05.486Z,1016.18
2018-08-09T04:02:14.793Z,1016.18
2018-08-09T04:03:23.564Z,1016.2
2018-08-09T04:04:33.682Z,1016.25
2018-08-09T04:05:42.997Z,1016.17
2018-08-09T04:06:52.572Z,1016.16
2018-08-09T04:08:01.875Z,1016.2
2018-08-09T04:09:11.734Z,1016.16
2018-08-09T04:10:21.852Z,1016.16
2018-08-09T04:11:31.440Z,1016.16
2018-08-09T04:12:41.370Z,1016.13
2018-08-09T04:13:51.483Z,1016.13
2018-08-09T04:15:01.600Z,1016.11
2018-08-09T04:16:11.453Z,1016.16
2018-08-09T04:17:21.031Z,1016.14
2018-08-09T04:18:30.606Z,1016.16
2018-08-09T04:19:40.181Z,1016.12
2018-08-09T04:20:49.758Z,1016.14
2018-08-09T04:21:59.063Z,1016.15
2018-08-09T04:23:08.372Z,1016.13
2018-08-09T04:24:18.224Z,1016.16
2018-08-09T04:25:27.803Z,1016.13
2018-08-09T04:26:37.460Z,1016.15
2018-08-09T04:27:47.380Z,1016.15
2018-08-09T04:28:56.699Z,1016.16
2018-08-09T04:30:06.282Z,1016.18
2018-08-09T04:31:16.127Z,1016.2
2018-08-09T04:32:25.430Z,1016.22
2018-08-09T04:33:35.006Z,1016.25
2018-08-09T04:34:44.595Z,1016.28
2018-08-09T04:35:53.634Z,1016.27
2018-08-09T04:37:03.213Z,1016.27
2018-08-09T04:38:13.327Z,1016.26
2018-08-09T04:39:23.175Z,1016.27
2018-08-09T04:40:31.938Z,1016.28
2018-08-09T04:41:41.786Z,1016.32
2018-08-09T04:42:51.355Z,1016.32
2018-08-09T04:44:01.015Z,1016.38
2018-08-09T04:45:11.125Z,1016.37
2018-08-09T04:46:20.429Z,1016.39
2018-08-09T04:47:30.285Z,1016.34
2018-08-09T04:48:39.862Z,1016.35
2018-08-09T04:49:49.445Z,1016.35
2018-08-09T04:50:59.296Z,1016.32
2018-08-09T04:52:08.601Z,1016.31
2018-08-09T04:53:18.449Z,1016.29
2018-08-09T04:54:28.292Z,1016.29
2018-08-09T04:55:38.422Z,1016.26
2018-08-09T04:56:48.542Z,1016.18
2018-08-09T04:57:58.401Z,1016.18
2018-08-09T04:59:08.168Z,1016.16
2018-08-09T05:00:18.290Z,1016.16
2018-08-09T05:01:28.142Z,1016.15
2018-08-09T05:02:37.457Z,1016.16
2018-08-09T05:03:47.299Z,1016.15
2018-08-09T05:04:56.890Z,1016.17
2018-08-09T05:06:07.018Z,1016.19
2018-08-09T05:07:16.865Z,1016.23
2018-08-09T05:08:26.717Z,1016.17
2018-08-09T05:09:36.297Z,1016.24
2018-08-09T05:10:45.869Z,1016.24
2018-08-09T05:11:55.984Z,1016.25
2018-08-09T05:13:05.832Z,1016.3
2018-08-09T05:14:15.674Z,1016.29
2018-08-09T05:15:25.524Z,1016.29
2018-08-09T05:16:35.373Z,1016.32
2018-08-09T05:17:44.145Z,1016.36
2018-08-09T05:18:54.267Z,1016.33
2018-08-09T05:20:03.570Z,1016.29
2018-08-09T05:21:13.146Z,1016.29
2018-08-09T05:22:22.451Z,1016.29
2018-08-09T05:23:32.035Z,1016.3
2018-08-09T05:24:41.881Z,1016.34
2018-08-09T05:25:51.476Z,1016.34
2018-08-09T05:27:01.330Z,1016.33
2018-08-09T05:28:11.447Z,1016.33
2018-08-09T05:29:21.035Z,1016.36
2018-08-09T05:30:30.344Z,1016.37
2018-08-09T05:31:39.930Z,1016.38
2018-08-09T05:32:49.515Z,1016.38
2018-08-09T05:33:59.093Z,1016.36
2018-08-09T05:35:08.769Z,1016.36
2018-08-09T05:36:18.613Z,1016.39
2018-08-09T05:37:27.925Z,1016.36
2018-08-09T05:38:37.236Z,1016.37
2018-08-09T05:39:46.541Z,1016.35
2018-08-09T05:40:55.850Z,1016.33
2018-08-09T05:42:06.017Z,1016.4
2018-08-09T05:43:15.867Z,1016.36
2018-08-09T05:44:25.454Z,1016.35
2018-08-09T05:45:35.629Z,1016.33
2018-08-09T05:46:45.202Z,1016.33
2018-08-09T05:47:55.321Z,1016.29
2018-08-09T05:49:04.907Z,1016.31
2018-08-09T05:50:14.208Z,1016.35
2018-08-09T05:51:24.047Z,1016.31
2018-08-09T05:52:33.665Z,1016.31
2018-08-09T05:53:43.128Z,1016.34
2018-08-09T05:54:52.983Z,1016.37
2018-08-09T05:56:02.290Z,1016.29
2018-08-09T05:57:12.139Z,1016.27
2018-08-09T05:58:22.295Z,1016.26
2018-08-09T05:59:32.448Z,1016.29
2018-08-09T06:00:42.290Z,1016.3
2018-08-09T06:01:51.592Z,1016.33
2018-08-09T06:03:01.170Z,1016.36
2018-08-09T06:04:11.017Z,1016.34
2018-08-09T06:05:20.591Z,1016.35
2018-08-09T06:06:29.899Z,1016.35
2018-08-09T06:07:39.747Z,1016.36
2018-08-09T06:08:49.875Z,1016.34
2018-08-09T06:09:59.990Z,1016.38
2018-08-09T06:11:09.564Z,1016.39
2018-08-09T06:12:19.674Z,1016.37
2018-08-09T06:13:29.543Z,1016.37
2018-08-09T06:14:40.042Z,1016.34
2018-08-09T06:15:50.163Z,1016.35
2018-08-09T06:16:59.746Z,1016.32
2018-08-09T06:18:09.602Z,1016.34
2018-08-09T06:19:19.724Z,1016.36
2018-08-09T06:20:29.577Z,1016.39
2018-08-09T06:21:39.159Z,1016.45
2018-08-09T06:22:49.003Z,1016.5
2018-08-09T06:23:58.852Z,1016.53
2018-08-09T06:25:08.163Z,1016.49
2018-08-09T06:26:18.297Z,1016.48
2018-08-09T06:27:28.859Z,1016.46
2018-08-09T06:28:38.437Z,1016.5
2018-08-09T06:29:48.930Z,1016.5
2018-08-09T06:30:58.512Z,1016.54
2018-08-09T06:32:08.089Z,1016.52
2018-08-09T06:33:17.985Z,1016.51
2018-08-09T06:34:28.032Z,1016.49
2018-08-09T06:35:37.892Z,1016.54
2018-08-09T06:36:46.928Z,1016.48
2018-08-09T06:37:57.048Z,1016.49
2018-08-09T06:39:06.087Z,1016.48
2018-08-09T06:40:15.668Z,1016.51
2018-08-09T06:41:25.511Z,1016.51
2018-08-09T06:42:35.359Z,1016.44
2018-08-09T06:43:44.930Z,1016.47
2018-08-09T06:44:53.967Z,1016.46
2018-08-09T06:46:03.276Z,1016.45
2018-08-09T06:47:13.133Z,1016.47
2018-08-09T06:48:22.987Z,1016.43
2018-08-09T06:49:32.290Z,1016.42
2018-08-09T06:50:41.867Z,1016.39
2018-08-09T06:51:51.176Z,1016.34
2018-08-09T06:53:01.022Z,1016.34
2018-08-09T06:54:10.603Z,1016.33
2018-08-09T06:55:20.190Z,1016.34
2018-08-09T06:56:30.042Z,1016.32
2018-08-09T06:57:39.889Z,1016.35
2018-08-09T06:58:49.468Z,1016.33
2018-08-09T06:59:59.040Z,1016.37
2018-08-09T07:01:08.613Z,1016.34
2018-08-09T07:02:18.460Z,1016.33
2018-08-09T07:03:28.043Z,1016.29
2018-08-09T07:04:37.893Z,1016.34
2018-08-09T07:05:48.013Z,1016.32
2018-08-09T07:06:57.890Z,1016.37
2018-08-09T07:08:08.100Z,1016.34
2018-08-09T07:09:17.960Z,1016.36
2018-08-09T07:10:27.824Z,1016.29
2018-08-09T07:11:37.451Z,1016.21
2018-08-09T07:12:47.063Z,1016.2
2018-08-09T07:13:57.635Z,1016.14
2018-08-09T07:15:07.210Z,1016.13
2018-08-09T07:16:16.787Z,1016.09
2018-08-09T07:17:26.414Z,1016.07
2018-08-09T07:18:36.258Z,1016.08
2018-08-09T07:19:46.115Z,1016.01
2018-08-09T07:20:55.965Z,1016.02
2018-08-09T07:22:06.081Z,1015.99
2018-08-09T07:23:15.653Z,1016.01
2018-08-09T07:24:25.233Z,1016.05
2018-08-09T07:25:34.273Z,1016.05
2018-08-09T07:26:43.584Z,1016.09
2018-08-09T07:27:53.430Z,1016.07
2018-08-09T07:29:03.012Z,1015.99
2018-08-09T07:30:12.329Z,1016.01
2018-08-09T07:31:22.177Z,1015.95
2018-08-09T07:32:32.035Z,1015.94
2018-08-09T07:33:41.887Z,1015.9
2018-08-09T07:34:51.949Z,1015.87
2018-08-09T07:36:01.796Z,1015.8
2018-08-09T07:37:11.374Z,1015.81
2018-08-09T07:38:20.952Z,1015.77
2018-08-09T07:39:30.932Z,1015.77
2018-08-09T07:40:41.771Z,1015.76
2018-08-09T07:41:51.083Z,1015.76
2018-08-09T07:43:01.200Z,1015.77
2018-08-09T07:44:11.314Z,1015.78
2018-08-09T07:45:20.620Z,1015.73
2018-08-09T07:46:30.794Z,1015.7
2018-08-09T07:47:40.370Z,1015.71
2018-08-09T07:48:49.996Z,1015.7
2018-08-09T07:50:00.036Z,1015.67
2018-08-09T07:51:09.342Z,1015.69
2018-08-09T07:52:18.670Z,1015.72
2018-08-09T07:53:28.523Z,1015.74
2018-08-09T07:54:37.565Z,1015.8
2018-08-09T07:55:46.880Z,1015.85
2018-08-09T07:56:56.190Z,1015.88
2018-08-09T07:58:06.693Z,1015.92
2018-08-09T07:59:15.728Z,1015.88
2018-08-09T08:00:25.307Z,1015.89
2018-08-09T08:01:35.424Z,1015.89
2018-08-09T08:02:45.002Z,1015.91
2018-08-09T08:03:54.315Z,1015.89
2018-08-09T08:05:03.636Z,1015.86
2018-08-09T08:06:13.794Z,1015.89
2018-08-09T08:07:23.887Z,1015.89
2018-08-09T08:08:33.534Z,1015.97
2018-08-09T08:09:42.776Z,1015.99
2018-08-09T08:10:52.627Z,1015.94
2018-08-09T08:12:02.210Z,1015.92
2018-08-09T08:13:11.794Z,1015.91
2018-08-09T08:14:21.369Z,1015.9
2018-08-09T08:15:30.995Z,1015.81
2018-08-09T08:16:40.583Z,1015.81
2018-08-09T08:17:50.436Z,1015.77
2018-08-09T08:19:00.015Z,1015.73
2018-08-09T08:20:09.594Z,1015.68
2018-08-09T08:21:19.169Z,1015.67
2018-08-09T08:22:29.099Z,1015.7
2018-08-09T08:23:38.410Z,1015.75
2018-08-09T08:24:48.527Z,1015.79
2018-08-09T08:25:57.843Z,1015.81
2018-08-09T08:27:07.151Z,1015.81
2018-08-09T08:28:16.741Z,1015.83
2018-08-09T08:29:26.584Z,1015.81
2018-08-09T08:30:36.428Z,1015.82
2018-08-09T08:31:46.274Z,1015.77
2018-08-09T08:32:55.312Z,1015.83
2018-08-09T08:34:05.169Z,1015.84
2018-08-09T08:35:14.746Z,1015.86
2018-08-09T08:36:24.595Z,1015.9
2018-08-09T08:37:34.449Z,1015.89
2018-08-09T08:38:44.298Z,1015.86
2018-08-09T08:39:53.877Z,1015.85
2018-08-09T08:41:04.005Z,1015.81
2018-08-09T08:42:13.905Z,1015.8
2018-08-09T08:43:24.158Z,1015.76
2018-08-09T08:44:34.009Z,1015.69
2018-08-09T08:45:43.592Z,1015.67
2018-08-09T08:46:52.905Z,1015.62
2018-08-09T08:48:02.749Z,1015.6
2018-08-09T08:49:12.604Z,1015.56
2018-08-09T08:50:21.378Z,1015.57
2018-08-09T08:51:31.499Z,1015.5
2018-08-09T08:52:41.618Z,1015.53
2018-08-09T08:53:50.929Z,1015.52
2018-08-09T08:55:00.536Z,1015.48
2018-08-09T08:56:10.811Z,1015.43
2018-08-09T08:57:20.389Z,1015.44
2018-08-09T08:58:29.968Z,1015.46
2018-08-09T08:59:39.547Z,1015.42
2018-08-09T09:00:49.232Z,1015.42
2018-08-09T09:01:59.542Z,1015.45
2018-08-09T09:03:08.889Z,1015.45
2018-08-09T09:04:18.415Z,1015.51
2018-08-09T09:05:28.252Z,1015.51
2018-08-09T09:06:38.368Z,1015.52
2018-08-09T09:07:48.223Z,1015.51
2018-08-09T09:08:57.809Z,1015.43
2018-08-09T09:10:07.114Z,1015.42
2018-08-09T09:11:17.277Z,1015.33
2018-08-09T09:12:27.391Z,1015.29
2018-08-09T09:13:36.479Z,1015.34
2018-08-09T09:14:46.909Z,1015.34
2018-08-09T09:15:56.218Z,1015.32
2018-08-09T09:17:06.344Z,1015.31
2018-08-09T09:18:16.191Z,1015.33
2018-08-09T09:19:25.781Z,1015.28
2018-08-09T09:20:35.086Z,1015.26
2018-08-09T09:21:44.669Z,1015.2
2018-08-09T09:22:54.514Z,1015.13
2018-08-09T09:24:04.628Z,1015.1
2018-08-09T09:25:14.490Z,1015.05
2018-08-09T09:26:24.067Z,1015.09
2018-08-09T09:27:33.643Z,1015.09
2018-08-09T09:28:43.490Z,1015.18
2018-08-09T09:29:53.085Z,1015.23
2018-08-09T09:31:02.683Z,1015.2
2018-08-09T09:32:11.992Z,1015.29
2018-08-09T09:33:22.112Z,1015.26
2018-08-09T09:34:31.963Z,1015.25
2018-08-09T09:35:41.813Z,1015.24
2018-08-09T09:36:51.390Z,1015.23
2018-08-09T09:38:00.970Z,1015.17
2018-08-09T09:39:10.820Z,1015.16
2018-08-09T09:40:20.404Z,1015.13
2018-08-09T09:41:30.525Z,1015.17
2018-08-09T09:42:40.108Z,1015.1
2018-08-09T09:43:49.700Z,1015.12
2018-08-09T09:44:59.279Z,1015.07
2018-08-09T09:46:09.400Z,1015.03
2018-08-09T09:47:18.986Z,1015.04
2018-08-09T09:48:28.833Z,1014.95
2018-08-09T09:49:38.152Z,1014.93
2018-08-09T09:50:48.290Z,1014.93
2018-08-09T09:51:57.861Z,1014.93
2018-08-09T09:53:07.165Z,1014.98
2018-08-09T09:54:16.749Z,1014.97
2018-08-09T09:55:26.337Z,1015.02
2018-08-09T09:56:36.202Z,1014.99
2018-08-09T09:57:45.519Z,1014.89
2018-08-09T09:58:55.184Z,1014.93
2018-08-09T10:00:05.035Z,1014.89
2018-08-09T10:01:14.069Z,1014.92
2018-08-09T10:02:23.516Z,1014.79
2018-08-09T10:03:32.882Z,1014.75
2018-08-09T10:04:42.228Z,1014.75
2018-08-09T10:05:51.806Z,1014.69
2018-08-09T10:07:01.425Z,1014.7
2018-08-09T10:08:11.729Z,1014.72
2018-08-09T10:09:21.124Z,1014.65
2018-08-09T10:10:31.085Z,1014.65
2018-08-09T10:11:41.334Z,1014.65
2018-08-09T10:12:51.444Z,1014.62
2018-08-09T10:14:01.289Z,1014.66
2018-08-09T10:15:10.886Z,1014.62
2018-08-09T10:16:21.039Z,1014.59
2018-08-09T10:17:31.173Z,1014.49
2018-08-09T10:18:41.107Z,1014.55
2018-08-09T10:19:50.820Z,1014.54
2018-08-09T10:21:01.120Z,1014.52
2018-08-09T10:22:10.973Z,1014.5
2018-08-09T10:23:20.557Z,1014.56
2018-08-09T10:24:30.406Z,1014.53
2018-08-09T10:25:40.531Z,1014.57
2018-08-09T10:26:50.376Z,1014.56
2018-08-09T10:28:00.560Z,1014.58
2018-08-09T10:29:09.596Z,1014.54
2018-08-09T10:30:19.184Z,1014.52
2018-08-09T10:31:28.792Z,1014.5
2018-08-09T10:32:38.377Z,1014.51
2018-08-09T10:33:47.952Z,1014.5
2018-08-09T10:34:57.801Z,1014.45
2018-08-09T10:36:07.645Z,1014.42
2018-08-09T10:37:17.226Z,1014.37
2018-08-09T10:38:27.082Z,1014.34
2018-08-09T10:39:36.389Z,1014.36
2018-08-09T10:40:46.715Z,1014.33
2018-08-09T10:41:56.033Z,1014.34
2018-08-09T10:43:05.339Z,1014.37
2018-08-09T10:44:14.928Z,1014.31
2018-08-09T10:45:24.240Z,1014.26
2018-08-09T10:46:34.091Z,1014.17
2018-08-09T10:47:44.204Z,1014.11
2018-08-09T10:48:54.073Z,1014.12
2018-08-09T10:50:04.237Z,1014.16
2018-08-09T10:51:14.089Z,1014.2
2018-08-09T10:52:23.810Z,1014.24
2018-08-09T10:53:33.116Z,1014.26
2018-08-09T10:54:43.234Z,1014.23
2018-08-09T10:55:52.834Z,1014.15
2018-08-09T10:57:02.427Z,1014.18
2018-08-09T10:58:12.628Z,1014.15
2018-08-09T10:59:21.777Z,1014.13
2018-08-09T11:00:32.103Z,1014.12
2018-08-09T11:01:42.126Z,1014.05
2018-08-09T11:02:52.626Z,1013.96
2018-08-09T11:04:02.278Z,1013.94
2018-08-09T11:05:11.652Z,1013.95
2018-08-09T11:06:21.627Z,1013.92
2018-08-09T11:07:31.645Z,1013.82
2018-08-09T11:08:41.600Z,1013.81
2018-08-09T11:09:51.732Z,1013.74
2018-08-09T11:11:01.798Z,1013.72
2018-08-09T11:12:12.156Z,1013.59
2018-08-09T11:13:22.364Z,1013.61
2018-08-09T11:14:31.911Z,1013.62
2018-08-09T11:15:41.758Z,1013.68
2018-08-09T11:16:51.799Z,1013.75
2018-08-09T11:18:02.207Z,1013.69
2018-08-09T11:19:11.804Z,1013.71
2018-08-09T11:20:21.706Z,1013.67
2018-08-09T11:21:31.331Z,1013.68
2018-08-09T11:22:41.183Z,1013.65
2018-08-09T11:23:50.841Z,1013.66
2018-08-09T11:25:01.039Z,1013.6
2018-08-09T11:26:10.904Z,1013.62
2018-08-09T11:27:20.903Z,1013.61
2018-08-09T11:28:30.443Z,1013.53
2018-08-09T11:29:40.108Z,1013.47
2018-08-09T11:30:49.769Z,1013.36
2018-08-09T11:31:59.896Z,1013.3
2018-08-09T11:33:09.917Z,1013.32
2018-08-09T11:34:19.857Z,1013.37
2018-08-09T11:35:29.206Z,1013.43
2018-08-09T11:36:39.078Z,1013.54
2018-08-09T11:37:48.987Z,1013.51
2018-08-09T11:38:58.627Z,1013.42
2018-08-09T11:40:08.249Z,1013.27
2018-08-09T11:41:17.882Z,1013.16
2018-08-09T11:42:27.507Z,1013.05
2018-08-09T11:43:37.458Z,1013.04
2018-08-09T11:44:46.769Z,1012.99
2018-08-09T11:45:56.881Z,1012.92
2018-08-09T11:47:06.733Z,1012.87
2018-08-09T11:48:16.313Z,1012.9
2018-08-09T11:49:25.292Z,1012.99
2018-08-09T11:50:35.268Z,1013.03
2018-08-09T11:51:45.192Z,1013.06
2018-08-09T11:52:55.652Z,1013.13
2018-08-09T11:54:05.979Z,1013.14
2018-08-09T11:55:15.691Z,1013.2
2018-08-09T11:56:25.873Z,1013.09
2018-08-09T11:57:36.334Z,1013.03
2018-08-09T11:58:46.353Z,1012.95
2018-08-09T11:59:56.116Z,1012.94
2018-08-09T12:01:05.790Z,1012.94
2018-08-09T12:02:15.943Z,1012.83
2018-08-09T12:03:26.212Z,1012.8
2018-08-09T12:04:36.627Z,1012.76
2018-08-09T12:05:46.450Z,1012.77
2018-08-09T12:06:56.030Z,1012.75
2018-08-09T12:08:06.571Z,1012.71
2018-08-09T12:09:16.425Z,1012.63
2018-08-09T12:10:26.109Z,1012.65
2018-08-09T12:11:35.708Z,1012.64
2018-08-09T12:12:45.835Z,1012.64
2018-08-09T12:13:55.152Z,1012.66
2018-08-09T12:15:04.498Z,1012.62
2018-08-09T12:16:14.802Z,1012.51
2018-08-09T12:17:24.645Z,1012.47
2018-08-09T12:18:34.500Z,1012.51
2018-08-09T12:19:44.620Z,1012.48
2018-08-09T12:20:54.495Z,1012.52
2018-08-09T12:22:04.274Z,1012.52
2018-08-09T12:23:13.586Z,1012.55
2018-08-09T12:24:23.182Z,1012.52
2018-08-09T12:25:32.888Z,1012.55
2018-08-09T12:26:43.016Z,1012.46
2018-08-09T12:27:52.625Z,1012.48
2018-08-09T12:29:02.213Z,1012.43
2018-08-09T12:30:11.797Z,1012.44
2018-08-09T12:31:21.184Z,1012.43
2018-08-09T12:32:31.040Z,1012.41
2018-08-09T12:33:40.082Z,1012.36
2018-08-09T12:34:49.943Z,1012.38
2018-08-09T12:36:00.060Z,1012.34
2018-08-09T12:37:09.109Z,1012.34
2018-08-09T12:38:18.979Z,1012.36
2018-08-09T12:39:28.832Z,1012.33
2018-08-09T12:40:38.415Z,1012.28
2018-08-09T12:41:47.728Z,1012.27
2018-08-09T12:42:57.040Z,1012.27
2018-08-09T12:44:07.053Z,1012.2
2018-08-09T12:45:17.268Z,1012.21
2018-08-09T12:46:28.023Z,1012.1
2018-08-09T12:47:37.873Z,1012.06
2018-08-09T12:48:47.464Z,1012
2018-08-09T12:49:57.585Z,1012
2018-08-09T12:51:07.429Z,1011.96
2018-08-09T12:52:16.739Z,1012
2018-08-09T12:53:26.318Z,1011.94
2018-08-09T12:54:36.176Z,1011.86
2018-08-09T12:55:45.760Z,1011.85
2018-08-09T12:56:55.342Z,1011.83
2018-08-09T12:58:04.394Z,1011.85
2018-08-09T12:59:14.512Z,1011.83
2018-08-09T13:00:24.103Z,1011.75
2018-08-09T13:01:33.416Z,1011.67
2018-08-09T13:02:43.020Z,1011.62
2018-08-09T13:03:52.604Z,1011.59
2018-08-09T13:05:02.208Z,1011.59
2018-08-09T13:06:12.058Z,1011.56
2018-08-09T13:07:22.183Z,1011.54
2018-08-09T13:08:32.045Z,1011.45
2018-08-09T13:09:42.180Z,1011.46
2018-08-09T13:10:51.505Z,1011.41
2018-08-09T13:12:00.854Z,1011.37
2018-08-09T13:13:10.713Z,1011.31
2018-08-09T13:14:20.342Z,1011.3
2018-08-09T13:15:30.208Z,1011.24
2018-08-09T13:16:40.336Z,1011.2
2018-08-09T13:17:49.942Z,1011.3
2018-08-09T13:18:59.797Z,1011.31
2018-08-09T13:20:09.662Z,1011.13
2018-08-09T13:21:19.522Z,1011.21
2018-08-09T13:22:29.661Z,1011.15
2018-08-09T13:23:38.980Z,1011.17
2018-08-09T13:24:48.035Z,1011.09
2018-08-09T13:25:57.911Z,1011.05
2018-08-09T13:27:07.501Z,1011.02
2018-08-09T13:28:16.554Z,1010.94
2018-08-09T13:29:26.133Z,1010.92
2018-08-09T13:30:36.010Z,1010.97
2018-08-09T13:31:46.146Z,1010.85
2018-08-09T13:32:55.734Z,1010.78
2018-08-09T13:34:05.594Z,1010.74
2018-08-09T13:35:14.920Z,1010.65
2018-08-09T13:36:24.789Z,1010.63
2018-08-09T13:37:34.703Z,1010.58
2018-08-09T13:38:44.559Z,1010.64
2018-08-09T13:39:54.158Z,1010.56
2018-08-09T13:41:03.758Z,1010.53
2018-08-09T13:42:13.084Z,1010.5
2018-08-09T13:43:21.912Z,1010.44
2018-08-09T13:44:31.299Z,1010.41
2018-08-09T13:45:40.623Z,1010.38
2018-08-09T13:46:49.949Z,1010.39
2018-08-09T13:48:00.095Z,1010.36
2018-08-09T13:49:09.959Z,1010.28
2018-08-09T13:50:19.829Z,1010.26
2018-08-09T13:51:29.490Z,1010.22
2018-08-09T13:52:39.248Z,1010.17
2018-08-09T13:53:49.344Z,1010.16
2018-08-09T13:54:59.479Z,1010.16
2018-08-09T13:56:09.070Z,1010.09
2018-08-09T13:57:18.396Z,1010.08
2018-08-09T13:58:28.332Z,1010.03
2018-08-09T13:59:37.645Z,1010.07
2018-08-09T14:00:47.241Z,1010.12
2018-08-09T14:01:56.578Z,1010.1
2018-08-09T14:03:06.169Z,1010.14
2018-08-09T14:04:15.487Z,1009.96
2018-08-09T14:05:25.081Z,1009.92